sensor_id;sensor_type;location;lat;lon;timestamp;temperature;humidity
23803;DHT22;12082;51.786;6.018;2023-08-07T00:01:44;12.90;99.90
23803;DHT22;12082;51.786;6.018;2023-08-07T00:04:10;12.90;99.90
23803;DHT22;12082;51.786;6.018;2023-08-07T00:06:35;12.90;99.90
23803;DHT22;12082;51.786;6.018;2023-08-07T00:09:01;13.00;99.90
23803;DHT22;12082;51.786;6.018;2023-08-07T00:11:26;12.90;99.90
23803;DHT22;12082;51.786;6.018;2023-08-07T00:13:53;12.90;99.90
23803;DHT22;12082;51.786;6.018;2023-08-07T00:16:19;12.90;99.90
23803;DHT22;12082;51.786;6.018;2023-08-07T00:18:45;12.90;99.90
23803;DHT22;12082;51.786;6.018;2023-08-07T00:21:10;12.90;99.90
23803;DHT22;12082;51.786;6.018;2023-08-07T00:23:36;12.90;99.90
23803;DHT22;12082;51.786;6.018;2023-08-07T00:26:01;12.90;99.90
23803;DHT22;12082;51.786;6.018;2023-08-07T00:28:27;12.90;99.90
23803;DHT22;12082;51.786;6.018;2023-08-07T00:30:53;12.90;99.90
23803;DHT22;12082;51.786;6.018;2023-08-07T00:33:19;12.90;99.90
23803;DHT22;12082;51.786;6.018;2023-08-07T00:35:44;12.90;99.90
23803;DHT22;12082;51.786;6.018;2023-08-07T00:38:10;12.80;99.90
23803;DHT22;12082;51.786;6.018;2023-08-07T00:40:39;12.90;99.90
23803;DHT22;12082;51.786;6.018;2023-08-07T00:43:04;12.80;99.90
23803;DHT22;12082;51.786;6.018;2023-08-07T00:45:36;12.80;99.90
23803;DHT22;12082;51.786;6.018;2023-08-07T00:48:03;12.90;99.90
23803;DHT22;12082;51.786;6.018;2023-08-07T00:50:29;12.90;99.90
23803;DHT22;12082;51.786;6.018;2023-08-07T00:52:55;12.90;99.90
23803;DHT22;12082;51.786;6.018;2023-08-07T00:55:21;12.90;99.90
23803;DHT22;12082;51.786;6.018;2023-08-07T00:57:46;12.90;99.90
23803;DHT22;12082;51.786;6.018;2023-08-07T01:00:13;12.80;99.90
23803;DHT22;12082;51.786;6.018;2023-08-07T01:02:40;12.90;99.90
23803;DHT22;12082;51.786;6.018;2023-08-07T01:05:05;12.80;99.90
23803;DHT22;12082;51.786;6.018;2023-08-07T01:07:31;12.90;99.90
23803;DHT22;12082;51.786;6.018;2023-08-07T01:09:56;12.90;99.90
23803;DHT22;12082;51.786;6.018;2023-08-07T01:12:30;12.90;99.90
23803;DHT22;12082;51.786;6.018;2023-08-07T01:15:22;12.90;99.90
23803;DHT22;12082;51.786;6.018;2023-08-07T01:17:52;12.90;99.90
23803;DHT22;12082;51.786;6.018;2023-08-07T01:20:18;12.90;99.90
23803;DHT22;12082;51.786;6.018;2023-08-07T01:22:44;12.90;99.90
23803;DHT22;12082;51.786;6.018;2023-08-07T01:25:09;12.90;99.90
23803;DHT22;12082;51.786;6.018;2023-08-07T01:27:36;12.80;99.90
23803;DHT22;12082;51.786;6.018;2023-08-07T01:30:26;12.80;99.90
23803;DHT22;12082;51.786;6.018;2023-08-07T01:33:10;13.50;99.90
23803;DHT22;12082;51.786;6.018;2023-08-07T01:35:47;12.80;99.90
23803;DHT22;12082;51.786;6.018;2023-08-07T01:38:14;12.80;99.90
23803;DHT22;12082;51.786;6.018;2023-08-07T01:40:40;12.80;99.90
23803;DHT22;12082;51.786;6.018;2023-08-07T01:43:07;12.80;99.90
23803;DHT22;12082;51.786;6.018;2023-08-07T01:45:33;12.80;99.90
23803;DHT22;12082;51.786;6.018;2023-08-07T01:47:59;12.80;99.90
23803;DHT22;12082;51.786;6.018;2023-08-07T01:50:25;12.80;99.90
23803;DHT22;12082;51.786;6.018;2023-08-07T01:52:51;12.80;99.90
23803;DHT22;12082;51.786;6.018;2023-08-07T01:55:18;12.80;99.90
23803;DHT22;12082;51.786;6.018;2023-08-07T01:57:44;12.80;99.90
23803;DHT22;12082;51.786;6.018;2023-08-07T02:00:10;12.80;99.90
23803;DHT22;12082;51.786;6.018;2023-08-07T02:02:36;12.80;99.90
23803;DHT22;12082;51.786;6.018;2023-08-07T02:05:03;12.80;99.90
23803;DHT22;12082;51.786;6.018;2023-08-07T02:07:29;12.80;99.90
23803;DHT22;12082;51.786;6.018;2023-08-07T02:09:55;12.80;99.90
23803;DHT22;12082;51.786;6.018;2023-08-07T02:12:20;12.80;99.90
23803;DHT22;12082;51.786;6.018;2023-08-07T02:14:46;12.80;99.90
23803;DHT22;12082;51.786;6.018;2023-08-07T02:17:11;12.80;99.90
23803;DHT22;12082;51.786;6.018;2023-08-07T02:19:37;12.80;99.90
23803;DHT22;12082;51.786;6.018;2023-08-07T02:22:03;12.80;99.90
23803;DHT22;12082;51.786;6.018;2023-08-07T02:24:28;12.80;99.90
23803;DHT22;12082;51.786;6.018;2023-08-07T02:26:54;12.70;99.90
23803;DHT22;12082;51.786;6.018;2023-08-07T02:29:20;12.80;99.90
23803;DHT22;12082;51.786;6.018;2023-08-07T02:31:45;12.70;99.90
23803;DHT22;12082;51.786;6.018;2023-08-07T02:34:11;12.70;99.90
23803;DHT22;12082;51.786;6.018;2023-08-07T02:36:36;12.60;99.90
23803;DHT22;12082;51.786;6.018;2023-08-07T02:39:02;12.70;99.90
23803;DHT22;12082;51.786;6.018;2023-08-07T02:41:29;12.60;99.90
23803;DHT22;12082;51.786;6.018;2023-08-07T02:43:54;12.60;99.90
23803;DHT22;12082;51.786;6.018;2023-08-07T02:46:20;12.60;99.90
23803;DHT22;12082;51.786;6.018;2023-08-07T02:48:46;12.60;99.90
23803;DHT22;12082;51.786;6.018;2023-08-07T02:51:11;12.60;99.90
23803;DHT22;12082;51.786;6.018;2023-08-07T02:53:37;12.60;99.90
23803;DHT22;12082;51.786;6.018;2023-08-07T02:56:02;12.60;99.90
23803;DHT22;12082;51.786;6.018;2023-08-07T02:58:28;12.60;99.90
23803;DHT22;12082;51.786;6.018;2023-08-07T03:00:53;12.60;99.90
23803;DHT22;12082;51.786;6.018;2023-08-07T03:03:19;12.60;99.90
23803;DHT22;12082;51.786;6.018;2023-08-07T03:05:51;12.70;99.90
23803;DHT22;12082;51.786;6.018;2023-08-07T03:08:17;12.70;99.90
23803;DHT22;12082;51.786;6.018;2023-08-07T03:10:53;12.70;99.90
23803;DHT22;12082;51.786;6.018;2023-08-07T03:13:18;12.70;99.90
23803;DHT22;12082;51.786;6.018;2023-08-07T03:15:44;12.70;99.90
23803;DHT22;12082;51.786;6.018;2023-08-07T03:18:10;12.70;99.90
23803;DHT22;12082;51.786;6.018;2023-08-07T03:20:38;12.70;99.90
23803;DHT22;12082;51.786;6.018;2023-08-07T03:23:04;12.70;99.90
23803;DHT22;12082;51.786;6.018;2023-08-07T03:25:29;12.70;99.90
23803;DHT22;12082;51.786;6.018;2023-08-07T03:27:55;12.70;99.90
23803;DHT22;12082;51.786;6.018;2023-08-07T03:30:21;12.70;99.90
23803;DHT22;12082;51.786;6.018;2023-08-07T03:32:46;12.70;99.90
23803;DHT22;12082;51.786;6.018;2023-08-07T03:35:12;12.70;99.90
23803;DHT22;12082;51.786;6.018;2023-08-07T03:37:37;12.70;99.90
23803;DHT22;12082;51.786;6.018;2023-08-07T03:40:03;12.60;99.90
23803;DHT22;12082;51.786;6.018;2023-08-07T03:42:29;12.70;99.90
23803;DHT22;12082;51.786;6.018;2023-08-07T03:44:54;12.70;99.90
23803;DHT22;12082;51.786;6.018;2023-08-07T03:47:20;12.70;99.90
23803;DHT22;12082;51.786;6.018;2023-08-07T03:49:45;12.70;99.90
23803;DHT22;12082;51.786;6.018;2023-08-07T03:52:11;12.70;99.90
23803;DHT22;12082;51.786;6.018;2023-08-07T03:54:37;12.70;99.90
23803;DHT22;12082;51.786;6.018;2023-08-07T03:57:02;12.70;99.90
23803;DHT22;12082;51.786;6.018;2023-08-07T03:59:28;12.70;99.90
23803;DHT22;12082;51.786;6.018;2023-08-07T04:01:54;12.60;99.90
23803;DHT22;12082;51.786;6.018;2023-08-07T04:04:20;12.60;99.90
23803;DHT22;12082;51.786;6.018;2023-08-07T04:06:45;12.50;99.90
23803;DHT22;12082;51.786;6.018;2023-08-07T04:09:11;12.50;99.90
23803;DHT22;12082;51.786;6.018;2023-08-07T04:11:37;12.60;99.90
23803;DHT22;12082;51.786;6.018;2023-08-07T04:14:02;12.60;99.90
23803;DHT22;12082;51.786;6.018;2023-08-07T04:16:30;12.60;99.90
23803;DHT22;12082;51.786;6.018;2023-08-07T04:18:56;12.60;99.90
23803;DHT22;12082;51.786;6.018;2023-08-07T04:21:22;12.60;99.90
23803;DHT22;12082;51.786;6.018;2023-08-07T04:23:47;12.60;99.90
23803;DHT22;12082;51.786;6.018;2023-08-07T04:26:13;12.60;99.90
23803;DHT22;12082;51.786;6.018;2023-08-07T04:28:39;12.60;99.90
23803;DHT22;12082;51.786;6.018;2023-08-07T04:31:05;12.70;99.90
23803;DHT22;12082;51.786;6.018;2023-08-07T04:33:31;12.60;99.90
23803;DHT22;12082;51.786;6.018;2023-08-07T04:35:56;12.70;99.90
23803;DHT22;12082;51.786;6.018;2023-08-07T04:38:22;12.70;99.90
23803;DHT22;12082;51.786;6.018;2023-08-07T04:40:48;12.70;99.90
23803;DHT22;12082;51.786;6.018;2023-08-07T04:43:15;12.70;99.90
23803;DHT22;12082;51.786;6.018;2023-08-07T04:45:41;12.70;99.90
23803;DHT22;12082;51.786;6.018;2023-08-07T04:48:08;12.70;99.90
23803;DHT22;12082;51.786;6.018;2023-08-07T04:50:34;12.70;99.90
23803;DHT22;12082;51.786;6.018;2023-08-07T04:52:59;12.70;99.90
23803;DHT22;12082;51.786;6.018;2023-08-07T04:55:25;12.70;99.90
23803;DHT22;12082;51.786;6.018;2023-08-07T04:57:51;12.70;99.90
23803;DHT22;12082;51.786;6.018;2023-08-07T05:00:20;12.70;99.90
23803;DHT22;12082;51.786;6.018;2023-08-07T05:02:46;12.80;99.90
23803;DHT22;12082;51.786;6.018;2023-08-07T05:05:14;12.70;99.90
23803;DHT22;12082;51.786;6.018;2023-08-07T05:07:40;12.80;99.90
23803;DHT22;12082;51.786;6.018;2023-08-07T05:10:06;12.80;99.90
23803;DHT22;12082;51.786;6.018;2023-08-07T05:12:32;12.80;99.90
23803;DHT22;12082;51.786;6.018;2023-08-07T05:14:57;12.90;99.90
23803;DHT22;12082;51.786;6.018;2023-08-07T05:17:23;12.90;99.90
23803;DHT22;12082;51.786;6.018;2023-08-07T05:19:48;12.90;99.90
23803;DHT22;12082;51.786;6.018;2023-08-07T05:22:15;12.90;99.90
23803;DHT22;12082;51.786;6.018;2023-08-07T05:24:40;12.90;99.90
23803;DHT22;12082;51.786;6.018;2023-08-07T05:27:09;12.90;99.90
23803;DHT22;12082;51.786;6.018;2023-08-07T05:29:35;12.90;99.90
23803;DHT22;12082;51.786;6.018;2023-08-07T05:32:12;12.90;99.90
23803;DHT22;12082;51.786;6.018;2023-08-07T05:34:38;12.90;99.90
23803;DHT22;12082;51.786;6.018;2023-08-07T05:37:04;12.90;99.90
23803;DHT22;12082;51.786;6.018;2023-08-07T05:39:30;13.00;99.90
23803;DHT22;12082;51.786;6.018;2023-08-07T05:41:56;13.00;99.90
23803;DHT22;12082;51.786;6.018;2023-08-07T05:44:23;13.00;99.90
23803;DHT22;12082;51.786;6.018;2023-08-07T05:46:49;13.00;99.90
23803;DHT22;12082;51.786;6.018;2023-08-07T05:49:14;12.90;99.90
23803;DHT22;12082;51.786;6.018;2023-08-07T05:51:40;13.10;99.90
23803;DHT22;12082;51.786;6.018;2023-08-07T05:54:06;13.10;99.90
23803;DHT22;12082;51.786;6.018;2023-08-07T05:56:31;13.10;99.90
23803;DHT22;12082;51.786;6.018;2023-08-07T05:58:57;13.10;99.90
23803;DHT22;12082;51.786;6.018;2023-08-07T06:01:22;13.10;99.90
23803;DHT22;12082;51.786;6.018;2023-08-07T06:03:48;13.20;99.90
23803;DHT22;12082;51.786;6.018;2023-08-07T06:06:14;13.30;99.90
23803;DHT22;12082;51.786;6.018;2023-08-07T06:08:39;13.20;99.90
23803;DHT22;12082;51.786;6.018;2023-08-07T06:11:05;13.20;99.90
23803;DHT22;12082;51.786;6.018;2023-08-07T06:13:33;13.20;99.90
23803;DHT22;12082;51.786;6.018;2023-08-07T06:15:59;13.30;99.90
23803;DHT22;12082;51.786;6.018;2023-08-07T06:18:25;13.40;99.90
23803;DHT22;12082;51.786;6.018;2023-08-07T06:20:50;13.30;99.90
23803;DHT22;12082;51.786;6.018;2023-08-07T06:23:16;13.30;99.90
23803;DHT22;12082;51.786;6.018;2023-08-07T06:25:42;13.30;99.90
23803;DHT22;12082;51.786;6.018;2023-08-07T06:28:08;13.30;99.90
23803;DHT22;12082;51.786;6.018;2023-08-07T06:30:34;13.30;99.90
23803;DHT22;12082;51.786;6.018;2023-08-07T06:32:59;13.40;99.90
23803;DHT22;12082;51.786;6.018;2023-08-07T06:35:25;13.40;99.90
23803;DHT22;12082;51.786;6.018;2023-08-07T06:37:50;13.30;99.90
23803;DHT22;12082;51.786;6.018;2023-08-07T06:40:16;13.30;99.90
23803;DHT22;12082;51.786;6.018;2023-08-07T06:42:42;13.20;99.90
23803;DHT22;12082;51.786;6.018;2023-08-07T06:45:08;13.30;99.90
23803;DHT22;12082;51.786;6.018;2023-08-07T06:47:33;13.30;99.90
23803;DHT22;12082;51.786;6.018;2023-08-07T06:49:59;13.30;99.90
23803;DHT22;12082;51.786;6.018;2023-08-07T06:52:24;13.40;99.90
23803;DHT22;12082;51.786;6.018;2023-08-07T06:54:50;13.50;99.90
23803;DHT22;12082;51.786;6.018;2023-08-07T06:57:16;13.60;99.90
23803;DHT22;12082;51.786;6.018;2023-08-07T06:59:41;13.70;99.90
23803;DHT22;12082;51.786;6.018;2023-08-07T07:02:07;13.80;99.90
23803;DHT22;12082;51.786;6.018;2023-08-07T07:04:32;13.90;99.90
23803;DHT22;12082;51.786;6.018;2023-08-07T07:06:58;13.80;99.90
23803;DHT22;12082;51.786;6.018;2023-08-07T07:09:24;13.90;99.90
23803;DHT22;12082;51.786;6.018;2023-08-07T07:11:50;14.00;99.90
23803;DHT22;12082;51.786;6.018;2023-08-07T07:14:15;14.10;99.90
23803;DHT22;12082;51.786;6.018;2023-08-07T07:16:41;14.20;99.90
23803;DHT22;12082;51.786;6.018;2023-08-07T07:19:07;14.30;99.90
23803;DHT22;12082;51.786;6.018;2023-08-07T07:21:35;14.40;99.90
23803;DHT22;12082;51.786;6.018;2023-08-07T07:24:02;14.60;99.90
23803;DHT22;12082;51.786;6.018;2023-08-07T07:26:28;14.70;99.90
23803;DHT22;12082;51.786;6.018;2023-08-07T07:28:53;14.80;99.90
23803;DHT22;12082;51.786;6.018;2023-08-07T07:31:19;14.80;99.90
23803;DHT22;12082;51.786;6.018;2023-08-07T07:33:45;14.90;99.90
23803;DHT22;12082;51.786;6.018;2023-08-07T07:36:18;14.90;99.90
23803;DHT22;12082;51.786;6.018;2023-08-07T07:38:47;14.90;99.90
23803;DHT22;12082;51.786;6.018;2023-08-07T07:41:14;13.90;99.90
23803;DHT22;12082;51.786;6.018;2023-08-07T07:43:40;14.90;99.90
23803;DHT22;12082;51.786;6.018;2023-08-07T07:46:05;14.90;99.90
23803;DHT22;12082;51.786;6.018;2023-08-07T07:48:31;15.10;99.90
23803;DHT22;12082;51.786;6.018;2023-08-07T07:51:01;15.10;99.90
23803;DHT22;12082;51.786;6.018;2023-08-07T07:53:27;15.30;99.90
23803;DHT22;12082;51.786;6.018;2023-08-07T07:55:53;15.20;99.90
23803;DHT22;12082;51.786;6.018;2023-08-07T07:58:19;15.10;99.90
23803;DHT22;12082;51.786;6.018;2023-08-07T08:00:45;15.10;99.90
23803;DHT22;12082;51.786;6.018;2023-08-07T08:03:11;15.10;99.90
23803;DHT22;12082;51.786;6.018;2023-08-07T08:05:37;16.00;99.90
23803;DHT22;12082;51.786;6.018;2023-08-07T08:08:03;16.30;99.90
23803;DHT22;12082;51.786;6.018;2023-08-07T08:10:29;17.00;99.90
23803;DHT22;12082;51.786;6.018;2023-08-07T08:12:55;17.60;99.90
23803;DHT22;12082;51.786;6.018;2023-08-07T08:15:21;17.40;99.90
23803;DHT22;12082;51.786;6.018;2023-08-07T08:17:47;16.90;99.90
23803;DHT22;12082;51.786;6.018;2023-08-07T08:20:14;16.20;99.90
23803;DHT22;12082;51.786;6.018;2023-08-07T08:22:41;15.60;99.90
23803;DHT22;12082;51.786;6.018;2023-08-07T08:25:07;15.10;99.90
23803;DHT22;12082;51.786;6.018;2023-08-07T08:27:33;14.80;99.90
23803;DHT22;12082;51.786;6.018;2023-08-07T08:29:58;14.60;99.90
23803;DHT22;12082;51.786;6.018;2023-08-07T08:32:24;14.50;99.90
23803;DHT22;12082;51.786;6.018;2023-08-07T08:34:49;14.50;99.90
23803;DHT22;12082;51.786;6.018;2023-08-07T08:37:15;14.40;99.90
23803;DHT22;12082;51.786;6.018;2023-08-07T08:39:41;14.50;99.90
23803;DHT22;12082;51.786;6.018;2023-08-07T08:42:09;14.50;99.90
23803;DHT22;12082;51.786;6.018;2023-08-07T08:44:36;14.80;99.90
23803;DHT22;12082;51.786;6.018;2023-08-07T08:47:04;15.60;99.90
23803;DHT22;12082;51.786;6.018;2023-08-07T08:49:35;16.60;99.90
23803;DHT22;12082;51.786;6.018;2023-08-07T08:52:02;17.10;99.90
23803;DHT22;12082;51.786;6.018;2023-08-07T08:54:28;17.40;99.90
23803;DHT22;12082;51.786;6.018;2023-08-07T08:56:56;17.40;99.90
23803;DHT22;12082;51.786;6.018;2023-08-07T08:59:22;17.20;99.90
23803;DHT22;12082;51.786;6.018;2023-08-07T09:01:50;17.60;99.90
23803;DHT22;12082;51.786;6.018;2023-08-07T09:04:18;18.30;99.90
23803;DHT22;12082;51.786;6.018;2023-08-07T09:06:44;18.40;99.90
23803;DHT22;12082;51.786;6.018;2023-08-07T09:09:11;17.80;99.90
23803;DHT22;12082;51.786;6.018;2023-08-07T09:11:38;17.70;99.90
23803;DHT22;12082;51.786;6.018;2023-08-07T09:14:04;17.10;99.90
23803;DHT22;12082;51.786;6.018;2023-08-07T09:16:30;17.00;99.90
23803;DHT22;12082;51.786;6.018;2023-08-07T09:18:56;16.60;99.90
23803;DHT22;12082;51.786;6.018;2023-08-07T09:21:22;16.30;99.90
23803;DHT22;12082;51.786;6.018;2023-08-07T09:23:47;15.80;99.90
23803;DHT22;12082;51.786;6.018;2023-08-07T09:26:13;15.30;99.90
23803;DHT22;12082;51.786;6.018;2023-08-07T09:28:38;14.90;99.90
23803;DHT22;12082;51.786;6.018;2023-08-07T09:31:07;14.50;99.90
23803;DHT22;12082;51.786;6.018;2023-08-07T09:33:34;14.20;99.90
23803;DHT22;12082;51.786;6.018;2023-08-07T09:36:01;14.20;99.90
23803;DHT22;12082;51.786;6.018;2023-08-07T09:38:30;14.10;99.90
23803;DHT22;12082;51.786;6.018;2023-08-07T09:40:59;14.50;99.90
23803;DHT22;12082;51.786;6.018;2023-08-07T09:43:25;15.10;99.90
23803;DHT22;12082;51.786;6.018;2023-08-07T09:45:50;15.90;99.90
23803;DHT22;12082;51.786;6.018;2023-08-07T09:48:24;16.50;99.90
23803;DHT22;12082;51.786;6.018;2023-08-07T09:50:53;16.90;99.90
23803;DHT22;12082;51.786;6.018;2023-08-07T09:53:25;17.40;99.90
23803;DHT22;12082;51.786;6.018;2023-08-07T09:55:55;17.40;99.90
23803;DHT22;12082;51.786;6.018;2023-08-07T09:58:20;17.30;99.90
23803;DHT22;12082;51.786;6.018;2023-08-07T10:00:47;17.00;99.90
23803;DHT22;12082;51.786;6.018;2023-08-07T10:03:15;16.50;99.90
23803;DHT22;12082;51.786;6.018;2023-08-07T10:05:43;16.40;99.90
23803;DHT22;12082;51.786;6.018;2023-08-07T10:08:10;15.80;99.90
23803;DHT22;12082;51.786;6.018;2023-08-07T10:10:37;15.10;99.90
23803;DHT22;12082;51.786;6.018;2023-08-07T10:13:03;14.70;99.90
23803;DHT22;12082;51.786;6.018;2023-08-07T10:15:30;14.70;99.90
23803;DHT22;12082;51.786;6.018;2023-08-07T10:17:56;14.60;99.90
23803;DHT22;12082;51.786;6.018;2023-08-07T10:20:23;14.70;99.90
23803;DHT22;12082;51.786;6.018;2023-08-07T10:22:50;15.00;99.90
23803;DHT22;12082;51.786;6.018;2023-08-07T10:25:20;15.20;99.90
23803;DHT22;12082;51.786;6.018;2023-08-07T10:27:47;15.60;99.90
23803;DHT22;12082;51.786;6.018;2023-08-07T10:30:15;15.90;99.90
23803;DHT22;12082;51.786;6.018;2023-08-07T10:32:42;16.10;99.90
23803;DHT22;12082;51.786;6.018;2023-08-07T10:35:08;16.30;99.90
23803;DHT22;12082;51.786;6.018;2023-08-07T10:37:40;16.30;99.90
23803;DHT22;12082;51.786;6.018;2023-08-07T10:40:07;16.30;99.90
23803;DHT22;12082;51.786;6.018;2023-08-07T10:45:20;16.10;99.90
23803;DHT22;12082;51.786;6.018;2023-08-07T10:48:12;16.10;99.90
23803;DHT22;12082;51.786;6.018;2023-08-07T10:53:41;17.00;99.90
23803;DHT22;12082;51.786;6.018;2023-08-07T10:56:10;17.30;99.90
23803;DHT22;12082;51.786;6.018;2023-08-07T10:58:37;17.20;99.90
23803;DHT22;12082;51.786;6.018;2023-08-07T11:03:57;17.00;99.90
23803;DHT22;12082;51.786;6.018;2023-08-07T11:08:51;17.40;99.90
23803;DHT22;12082;51.786;6.018;2023-08-07T11:11:17;17.40;99.90
23803;DHT22;12082;51.786;6.018;2023-08-07T11:13:42;17.30;99.90
23803;DHT22;12082;51.786;6.018;2023-08-07T11:16:08;17.30;99.90
23803;DHT22;12082;51.786;6.018;2023-08-07T11:18:34;17.10;99.90
23803;DHT22;12082;51.786;6.018;2023-08-07T11:21:01;17.00;99.90
23803;DHT22;12082;51.786;6.018;2023-08-07T11:23:27;16.80;99.90
23803;DHT22;12082;51.786;6.018;2023-08-07T11:25:54;16.60;99.90
23803;DHT22;12082;51.786;6.018;2023-08-07T11:28:21;16.40;99.90
23803;DHT22;12082;51.786;6.018;2023-08-07T11:30:51;16.30;99.90
23803;DHT22;12082;51.786;6.018;2023-08-07T11:33:18;16.40;99.90
23803;DHT22;12082;51.786;6.018;2023-08-07T11:35:45;16.50;99.90
23803;DHT22;12082;51.786;6.018;2023-08-07T11:38:10;16.60;99.90
23803;DHT22;12082;51.786;6.018;2023-08-07T11:40:36;16.80;99.90
23803;DHT22;12082;51.786;6.018;2023-08-07T11:43:02;17.10;99.90
23803;DHT22;12082;51.786;6.018;2023-08-07T11:45:28;17.10;99.90
23803;DHT22;12082;51.786;6.018;2023-08-07T11:47:54;17.20;99.90
23803;DHT22;12082;51.786;6.018;2023-08-07T11:50:22;17.30;99.90
23803;DHT22;12082;51.786;6.018;2023-08-07T11:52:48;17.60;99.90
23803;DHT22;12082;51.786;6.018;2023-08-07T11:55:17;17.90;99.90
23803;DHT22;12082;51.786;6.018;2023-08-07T11:57:47;18.00;99.90
23803;DHT22;12082;51.786;6.018;2023-08-07T12:00:13;18.00;99.90
23803;DHT22;12082;51.786;6.018;2023-08-07T12:02:45;17.90;99.90
23803;DHT22;12082;51.786;6.018;2023-08-07T12:05:11;17.90;99.90
23803;DHT22;12082;51.786;6.018;2023-08-07T12:07:38;17.80;99.90
23803;DHT22;12082;51.786;6.018;2023-08-07T12:10:11;17.80;99.90
23803;DHT22;12082;51.786;6.018;2023-08-07T12:12:37;17.90;99.90
23803;DHT22;12082;51.786;6.018;2023-08-07T12:15:07;18.10;99.90
23803;DHT22;12082;51.786;6.018;2023-08-07T12:17:33;18.30;99.90
23803;DHT22;12082;51.786;6.018;2023-08-07T12:19:58;18.40;99.90
23803;DHT22;12082;51.786;6.018;2023-08-07T12:22:27;18.50;99.90
23803;DHT22;12082;51.786;6.018;2023-08-07T12:24:54;18.40;99.90
23803;DHT22;12082;51.786;6.018;2023-08-07T12:27:20;18.10;99.90
23803;DHT22;12082;51.786;6.018;2023-08-07T12:29:46;18.20;99.90
23803;DHT22;12082;51.786;6.018;2023-08-07T12:32:11;18.10;99.90
23803;DHT22;12082;51.786;6.018;2023-08-07T12:34:37;18.10;99.90
23803;DHT22;12082;51.786;6.018;2023-08-07T12:37:06;17.90;99.90
23803;DHT22;12082;51.786;6.018;2023-08-07T12:39:31;17.60;99.90
23803;DHT22;12082;51.786;6.018;2023-08-07T12:41:57;17.20;99.90
23803;DHT22;12082;51.786;6.018;2023-08-07T12:44:23;17.10;99.90
23803;DHT22;12082;51.786;6.018;2023-08-07T12:46:49;17.10;99.90
23803;DHT22;12082;51.786;6.018;2023-08-07T12:49:15;17.30;99.90
23803;DHT22;12082;51.786;6.018;2023-08-07T12:51:41;17.70;99.90
23803;DHT22;12082;51.786;6.018;2023-08-07T12:54:06;18.00;99.90
23803;DHT22;12082;51.786;6.018;2023-08-07T12:56:32;18.40;99.90
23803;DHT22;12082;51.786;6.018;2023-08-07T12:58:59;18.60;99.90
23803;DHT22;12082;51.786;6.018;2023-08-07T13:01:25;18.60;99.90
23803;DHT22;12082;51.786;6.018;2023-08-07T13:03:51;18.50;99.90
23803;DHT22;12082;51.786;6.018;2023-08-07T13:06:17;18.50;99.90
23803;DHT22;12082;51.786;6.018;2023-08-07T13:08:43;18.20;99.90
23803;DHT22;12082;51.786;6.018;2023-08-07T13:11:08;18.00;99.90
23803;DHT22;12082;51.786;6.018;2023-08-07T13:13:34;17.80;99.90
23803;DHT22;12082;51.786;6.018;2023-08-07T13:15:59;17.50;99.90
23803;DHT22;12082;51.786;6.018;2023-08-07T13:18:25;17.30;99.90
23803;DHT22;12082;51.786;6.018;2023-08-07T13:20:50;17.30;99.90
23803;DHT22;12082;51.786;6.018;2023-08-07T13:23:16;17.80;99.90
23803;DHT22;12082;51.786;6.018;2023-08-07T13:25:41;18.20;99.90
23803;DHT22;12082;51.786;6.018;2023-08-07T13:28:07;18.50;99.90
23803;DHT22;12082;51.786;6.018;2023-08-07T13:30:33;18.60;99.90
23803;DHT22;12082;51.786;6.018;2023-08-07T13:32:59;19.00;99.90
23803;DHT22;12082;51.786;6.018;2023-08-07T13:35:24;19.50;99.90
23803;DHT22;12082;51.786;6.018;2023-08-07T13:37:50;19.60;99.90
23803;DHT22;12082;51.786;6.018;2023-08-07T13:40:15;20.10;99.90
23803;DHT22;12082;51.786;6.018;2023-08-07T13:42:41;20.20;99.90
23803;DHT22;12082;51.786;6.018;2023-08-07T13:45:07;20.20;99.90
23803;DHT22;12082;51.786;6.018;2023-08-07T13:47:35;20.30;99.90
23803;DHT22;12082;51.786;6.018;2023-08-07T13:50:01;20.60;99.90
23803;DHT22;12082;51.786;6.018;2023-08-07T13:52:27;21.00;99.90
23803;DHT22;12082;51.786;6.018;2023-08-07T13:54:53;21.00;99.90
23803;DHT22;12082;51.786;6.018;2023-08-07T13:57:18;21.10;99.90
23803;DHT22;12082;51.786;6.018;2023-08-07T13:59:44;21.30;99.90
23803;DHT22;12082;51.786;6.018;2023-08-07T14:02:09;21.30;99.90
23803;DHT22;12082;51.786;6.018;2023-08-07T14:04:35;20.90;99.90
23803;DHT22;12082;51.786;6.018;2023-08-07T14:07:02;20.80;99.90
23803;DHT22;12082;51.786;6.018;2023-08-07T14:09:28;20.70;99.90
23803;DHT22;12082;51.786;6.018;2023-08-07T14:11:53;20.90;99.90
23803;DHT22;12082;51.786;6.018;2023-08-07T14:14:19;20.80;99.90
23803;DHT22;12082;51.786;6.018;2023-08-07T14:16:44;20.80;99.90
23803;DHT22;12082;51.786;6.018;2023-08-07T14:19:10;20.80;99.90
23803;DHT22;12082;51.786;6.018;2023-08-07T14:21:36;20.60;99.90
23803;DHT22;12082;51.786;6.018;2023-08-07T14:24:01;20.40;99.90
23803;DHT22;12082;51.786;6.018;2023-08-07T14:26:27;19.90;99.90
23803;DHT22;12082;51.786;6.018;2023-08-07T14:28:52;19.40;99.90
23803;DHT22;12082;51.786;6.018;2023-08-07T14:31:18;19.60;99.90
23803;DHT22;12082;51.786;6.018;2023-08-07T14:33:43;20.00;99.90
23803;DHT22;12082;51.786;6.018;2023-08-07T14:36:09;20.30;99.90
23803;DHT22;12082;51.786;6.018;2023-08-07T14:38:35;20.50;99.90
23803;DHT22;12082;51.786;6.018;2023-08-07T14:41:00;20.30;99.90
23803;DHT22;12082;51.786;6.018;2023-08-07T14:43:30;19.80;99.90
23803;DHT22;12082;51.786;6.018;2023-08-07T14:45:56;19.30;99.90
23803;DHT22;12082;51.786;6.018;2023-08-07T14:48:22;19.30;99.90
23803;DHT22;12082;51.786;6.018;2023-08-07T14:50:47;19.50;99.90
23803;DHT22;12082;51.786;6.018;2023-08-07T14:53:13;19.80;99.90
23803;DHT22;12082;51.786;6.018;2023-08-07T14:55:39;20.30;99.90
23803;DHT22;12082;51.786;6.018;2023-08-07T14:58:04;20.70;99.90
23803;DHT22;12082;51.786;6.018;2023-08-07T15:00:30;20.00;99.90
23803;DHT22;12082;51.786;6.018;2023-08-07T15:02:56;19.60;99.90
23803;DHT22;12082;51.786;6.018;2023-08-07T15:05:23;19.20;99.90
23803;DHT22;12082;51.786;6.018;2023-08-07T15:07:48;18.90;99.90
23803;DHT22;12082;51.786;6.018;2023-08-07T15:10:14;18.70;99.90
23803;DHT22;12082;51.786;6.018;2023-08-07T15:12:39;18.80;99.90
23803;DHT22;12082;51.786;6.018;2023-08-07T15:15:05;18.90;99.90
23803;DHT22;12082;51.786;6.018;2023-08-07T15:17:32;19.00;99.90
23803;DHT22;12082;51.786;6.018;2023-08-07T15:19:57;19.00;99.90
23803;DHT22;12082;51.786;6.018;2023-08-07T15:22:23;19.40;99.90
23803;DHT22;12082;51.786;6.018;2023-08-07T15:24:48;20.00;99.90
23803;DHT22;12082;51.786;6.018;2023-08-07T15:27:14;20.30;99.90
23803;DHT22;12082;51.786;6.018;2023-08-07T15:29:44;20.30;99.90
23803;DHT22;12082;51.786;6.018;2023-08-07T15:32:10;20.20;99.90
23803;DHT22;12082;51.786;6.018;2023-08-07T15:34:35;19.60;99.90
23803;DHT22;12082;51.786;6.018;2023-08-07T15:37:01;19.20;99.90